Farmington, WV (26571)

9:54 AM EST on February 06, 2016 (GMT -0500)
Rivesville | | Change Station
CLOSE
Current Station
Personal Weather Station
Location: Rivesville, WV
Elevation: 942 ft
Nearby Weather Stations

Elev 942 ft 39.53 °N, 80.13 °W | Updated 32 seconds ago

Clear
Clear
32.2 °F
Feels Like 32 °F
N
2.2
Wind Variable Wind from SSE

Today
High -- | Low -- °F
--% Chance of Precip.
Yesterday
High -- | Low -- °F
Precip. -- in
Pressure 30.37 in
Visibility 10.0 miles
Clouds Clear
Windchill 32 °F
Dew Point 27 °F
Humidity 80%
Rainfall 0.00 in
Snow Depth Not available.
7:24 AM 5:46 PM
Waning Crescent, 5% visible
METAR KCKB 061353Z 00000KT 10SM CLR M01/M08 A3034 RMK AO2 SLP283 T10061078
Pressure 30.37 in
Visibility 10.0 miles
Clouds Clear
Windchill 32 °F
Dew Point 27 °F
Humidity 80%
Rainfall 0.00 in
Snow Depth Not available.
7:24 AM 5:46 PM
Waning Crescent, 5% visible
METAR KCKB 061353Z 00000KT 10SM CLR M01/M08 A3034 RMK AO2 SLP283 T10061078

10-Day Weather Forecast

Almanac

Astronomy

Feb. 06, 2016 Rise Set
Actual Time
Civil Twilight
Nautical Twilight
Astronomical Twilight
Moon
Length of Visible Light
Length of Day
Tomorrow will be .
, % of the Moon is Illuminated

Today's Extremes

State Highs State Lows

Community

WunderPhotos

Upload Photos

1,890,983 photos uploaded!

WunderBlog® & News

Nearby

Air Quality

  Air Quality AQ Index Pollutant
Not available.

Snow Depth

Station Depth Elevation

Earthquake Activity

City Distance Mag. Time & Date
Minimum magnitude displayed is 2.5.

Coastal Water Temperatures

Place Temperature

Stations

Nearby Weather Stations

Station Location Temp. Windchill Dew Point Humidity Wind Precip. Elev Updated Type
                   

Watches & Warnings

There are currently no watches in effect.